createdAt,value
2019-02-20T00:01:52.921Z,17.20
2019-02-20T00:04:57.659Z,16.43
2019-02-20T00:08:02.621Z,17.53
2019-02-20T00:11:07.416Z,16.90
2019-02-20T00:14:12.158Z,16.80
2019-02-20T00:17:17.201Z,16.93
2019-02-20T00:20:21.909Z,16.40
2019-02-20T00:23:26.827Z,16.23
2019-02-20T00:26:31.683Z,15.90
2019-02-20T00:29:36.482Z,16.20
2019-02-20T00:32:41.120Z,16.40
2019-02-20T00:35:45.966Z,16.20
2019-02-20T00:38:50.705Z,16.33
2019-02-20T00:41:55.545Z,16.50
2019-02-20T00:45:17.708Z,15.90
2019-02-20T00:48:53.397Z,16.00
2019-02-20T00:52:16.873Z,15.70
2019-02-20T00:55:21.669Z,15.80
2019-02-20T00:58:26.506Z,14.70
2019-02-20T01:01:31.433Z,14.80
2019-02-20T01:04:36.177Z,16.20
2019-02-20T01:07:41.107Z,14.93
2019-02-20T01:10:45.942Z,15.00
2019-02-20T01:13:50.763Z,15.23
2019-02-20T01:16:55.579Z,15.37
2019-02-20T01:20:00.418Z,14.27
2019-02-20T01:23:05.135Z,14.30
2019-02-20T01:26:12.891Z,15.27
2019-02-20T01:29:17.665Z,15.13
2019-02-20T01:32:22.303Z,14.77
2019-02-20T01:35:27.121Z,15.13
2019-02-20T01:38:31.665Z,15.27
2019-02-20T01:41:36.480Z,14.80
2019-02-20T01:44:41.432Z,14.90
2019-02-20T01:47:46.240Z,14.70
2019-02-20T01:50:50.956Z,14.90
2019-02-20T01:53:55.501Z,15.60
2019-02-20T01:57:00.330Z,14.63
2019-02-20T02:00:05.965Z,14.70
2019-02-20T02:03:10.817Z,15.43
2019-02-20T02:06:15.770Z,14.23
2019-02-20T02:09:20.364Z,15.13
2019-02-20T02:12:25.201Z,15.13
2019-02-20T02:15:30.126Z,14.83
2019-02-20T02:18:36.914Z,16.40
2019-02-20T02:21:41.731Z,14.83
2019-02-20T02:24:47.484Z,15.10
2019-02-20T02:27:52.098Z,14.97
2019-02-20T02:30:56.853Z,15.13
2019-02-20T02:34:01.754Z,14.60
2019-02-20T02:37:06.501Z,13.57
2019-02-20T02:40:11.347Z,15.40
2019-02-20T02:43:16.037Z,14.43
2019-02-20T02:46:21.580Z,14.20
2019-02-20T02:49:26.424Z,14.97
2019-02-20T02:52:31.159Z,14.17
2019-02-20T02:55:38.123Z,13.80
2019-02-20T02:58:42.994Z,14.40
2019-02-20T03:01:47.702Z,14.50
2019-02-20T03:04:52.547Z,13.40
2019-02-20T03:07:57.257Z,13.57
2019-02-20T03:11:01.971Z,13.30
2019-02-20T03:14:06.919Z,13.97
2019-02-20T03:17:11.755Z,13.67
2019-02-20T03:20:16.473Z,14.03
2019-02-20T03:23:22.286Z,13.90
2019-02-20T03:26:27.052Z,13.50
2019-02-20T03:29:33.183Z,14.40
2019-02-20T03:32:37.754Z,15.20
2019-02-20T03:35:42.479Z,14.07
2019-02-20T03:38:47.091Z,13.90
2019-02-20T03:41:51.845Z,14.90
2019-02-20T03:44:56.543Z,13.80
2019-02-20T03:48:02.555Z,14.63
2019-02-20T03:51:07.242Z,14.10
2019-02-20T03:54:12.835Z,13.20
2019-02-20T03:57:18.637Z,13.97
2019-02-20T04:00:23.366Z,16.57
2019-02-20T04:03:28.191Z,17.30
2019-02-20T04:06:32.833Z,17.23
2019-02-20T04:09:37.552Z,17.17
2019-02-20T04:12:43.891Z,15.80
2019-02-20T04:15:48.674Z,15.97
2019-02-20T04:18:53.386Z,16.03
2019-02-20T04:21:59.282Z,16.30
2019-02-20T04:25:04.193Z,16.50
2019-02-20T04:28:12.950Z,16.53
2019-02-20T04:31:16.986Z,17.83
2019-02-20T04:34:21.704Z,17.33
2019-02-20T04:37:27.585Z,16.33
2019-02-20T04:40:33.778Z,17.00
2019-02-20T04:43:38.544Z,16.80
2019-02-20T04:46:46.168Z,16.33
2019-02-20T04:49:51.012Z,16.77
2019-02-20T04:52:55.934Z,16.50
2019-02-20T04:56:00.728Z,16.70
2019-02-20T04:59:05.188Z,16.87
2019-02-20T05:02:09.894Z,16.73
2019-02-20T05:05:14.342Z,16.57
2019-02-20T05:08:20.525Z,15.57
2019-02-20T05:11:25.307Z,15.83
2019-02-20T05:14:30.070Z,17.10
2019-02-20T05:17:34.979Z,17.30
2019-02-20T05:20:42.866Z,17.30
2019-02-20T05:23:47.613Z,16.57
2019-02-20T05:26:52.436Z,16.80
2019-02-20T05:29:57.139Z,18.20
2019-02-20T05:33:01.541Z,17.10
2019-02-20T05:36:06.394Z,18.10
2019-02-20T05:39:13.614Z,18.70
2019-02-20T05:42:18.329Z,17.67
2019-02-20T05:45:23.175Z,17.23
2019-02-20T05:48:27.994Z,18.10
2019-02-20T05:51:32.726Z,17.67
2019-02-20T05:54:38.446Z,18.73
2019-02-20T05:57:43.186Z,18.20
2019-02-20T06:00:48.123Z,18.17
2019-02-20T06:03:52.960Z,18.50
2019-02-20T06:06:59.168Z,18.40
2019-02-20T06:10:04.004Z,17.00
2019-02-20T06:13:08.988Z,18.60
2019-02-20T06:16:13.728Z,17.60
2019-02-20T06:19:18.536Z,19.33
2019-02-20T06:22:23.313Z,18.33
2019-02-20T06:25:28.323Z,19.07
2019-02-20T06:28:33.362Z,19.23
2019-02-20T06:31:38.160Z,17.57
2019-02-20T06:34:42.887Z,19.90
2019-02-20T06:37:47.542Z,18.43
2019-02-20T06:40:52.371Z,18.50
2019-02-20T06:43:57.308Z,18.47
2019-02-20T06:47:02.129Z,18.73
2019-02-20T06:50:06.958Z,19.17
2019-02-20T06:53:11.465Z,19.50
2019-02-20T06:56:16.203Z,19.57
2019-02-20T06:59:21.133Z,19.07
2019-02-20T07:02:26.059Z,20.37
2019-02-20T07:05:42.414Z,21.43
2019-02-20T07:09:49.424Z,22.67
2019-02-20T07:13:19.551Z,23.03
2019-02-20T07:17:12.436Z,21.60
2019-02-20T07:21:11.079Z,24.50
2019-02-20T07:24:29.876Z,25.40
2019-02-20T07:28:14.201Z,26.10
2019-02-20T07:31:18.832Z,26.27
2019-02-20T07:34:23.622Z,23.40
2019-02-20T07:37:28.270Z,24.27
2019-02-20T07:40:32.999Z,22.90
2019-02-20T07:43:38.754Z,23.07
2019-02-20T07:46:43.195Z,23.27
2019-02-20T07:49:48.039Z,22.83
2019-02-20T07:52:53.155Z,23.13
2019-02-20T07:55:57.877Z,22.97
2019-02-20T07:59:02.609Z,23.03
2019-02-20T08:02:07.249Z,22.13
2019-02-20T08:05:12.170Z,21.67
2019-02-20T08:08:17.002Z,21.77
2019-02-20T08:11:21.828Z,21.23
2019-02-20T08:14:26.559Z,21.00
2019-02-20T08:17:31.233Z,21.70
2019-02-20T08:20:36.092Z,21.20
2019-02-20T08:23:40.953Z,21.40
2019-02-20T08:26:45.881Z,21.37
2019-02-20T08:29:50.638Z,20.50
2019-02-20T08:32:55.239Z,20.30
2019-02-20T08:36:00.012Z,20.00
2019-02-20T08:39:05.940Z,20.80
2019-02-20T08:42:10.756Z,19.93
2019-02-20T08:45:15.484Z,19.53
2019-02-20T08:48:20.202Z,20.70
2019-02-20T08:51:24.822Z,19.00
2019-02-20T08:54:29.761Z,19.73
2019-02-20T08:57:34.644Z,20.07
2019-02-20T09:00:39.509Z,19.60
2019-02-20T09:03:44.362Z,19.00
2019-02-20T09:06:49.184Z,19.73
2019-02-20T09:09:54.009Z,19.60
2019-02-20T09:12:58.857Z,18.70
2019-02-20T09:16:03.580Z,19.30
2019-02-20T09:19:08.243Z,19.73
2019-02-20T09:22:13.128Z,20.30
2019-02-20T09:25:20.035Z,19.30
2019-02-20T09:28:24.315Z,18.90
2019-02-20T09:31:29.152Z,19.10
2019-02-20T09:34:33.988Z,19.30
2019-02-20T09:37:40.776Z,19.60
2019-02-20T09:40:45.540Z,18.90
2019-02-20T09:43:50.316Z,18.30
2019-02-20T09:46:55.062Z,19.20
2019-02-20T09:49:59.769Z,18.50
2019-02-20T09:53:04.317Z,19.30
2019-02-20T09:56:09.122Z,19.87
2019-02-20T09:59:13.661Z,18.63
2019-02-20T10:02:18.608Z,17.60
2019-02-20T10:05:23.430Z,17.30
2019-02-20T10:08:28.165Z,19.70
2019-02-20T10:11:32.868Z,17.83
2019-02-20T10:14:37.625Z,19.43
2019-02-20T10:17:42.532Z,18.20
2019-02-20T10:20:49.556Z,19.53
2019-02-20T10:23:54.449Z,19.70
2019-02-20T10:27:00.868Z,19.13
2019-02-20T10:30:06.856Z,21.37
2019-02-20T10:33:11.495Z,20.90
2019-02-20T10:36:16.328Z,20.20
2019-02-20T10:39:21.159Z,20.70
2019-02-20T10:42:25.699Z,20.73
2019-02-20T10:45:30.509Z,21.20
2019-02-20T10:48:35.261Z,20.80
2019-02-20T10:51:40.076Z,22.23
2019-02-20T10:54:45.620Z,20.97
2019-02-20T10:57:50.242Z,21.80
2019-02-20T11:00:54.871Z,21.17
2019-02-20T11:03:59.587Z,21.10
2019-02-20T11:07:04.446Z,22.73
2019-02-20T11:10:09.354Z,22.07
2019-02-20T11:13:13.901Z,22.60
2019-02-20T11:16:18.612Z,22.00
2019-02-20T11:19:23.444Z,22.63
2019-02-20T11:22:28.268Z,24.77
2019-02-20T11:25:33.016Z,22.47
2019-02-20T11:28:37.623Z,23.10
2019-02-20T11:31:42.460Z,22.73
2019-02-20T11:34:47.284Z,24.00
2019-02-20T11:37:52.224Z,23.40
2019-02-20T11:40:57.164Z,23.20
2019-02-20T11:44:01.693Z,22.80
2019-02-20T11:47:06.499Z,23.57
2019-02-20T11:50:11.567Z,24.03
2019-02-20T11:53:16.362Z,25.20
2019-02-20T11:56:26.436Z,24.37
2019-02-20T11:59:27.458Z,24.30
2019-02-20T12:02:37.512Z,23.73
2019-02-20T12:05:38.783Z,24.30
2019-02-20T12:08:43.597Z,24.10
2019-02-20T12:11:51.598Z,24.07
2019-02-20T12:14:56.317Z,23.40
2019-02-20T12:18:01.159Z,23.53
2019-02-20T12:21:05.895Z,25.10
2019-02-20T12:24:11.876Z,23.73
2019-02-20T12:27:16.490Z,24.57
2019-02-20T12:30:21.411Z,24.07
2019-02-20T12:33:26.254Z,23.43
2019-02-20T12:36:30.861Z,24.63
2019-02-20T12:39:35.600Z,23.80
2019-02-20T12:42:41.939Z,24.20
2019-02-20T12:45:46.900Z,24.23
2019-02-20T12:48:51.504Z,23.50
2019-02-20T12:51:56.242Z,23.40
2019-02-20T12:55:00.976Z,23.70
2019-02-20T12:58:05.795Z,23.17
2019-02-20T13:01:10.625Z,23.17
2019-02-20T13:04:15.598Z,21.87
2019-02-20T13:07:20.295Z,23.90
2019-02-20T13:10:25.225Z,23.83
2019-02-20T13:13:30.097Z,23.60
2019-02-20T13:16:34.881Z,23.43
2019-02-20T13:19:39.722Z,24.10
2019-02-20T13:22:44.451Z,23.03
2019-02-20T13:25:49.271Z,23.03
2019-02-20T13:28:54.105Z,23.97
2019-02-20T13:31:58.840Z,23.10
2019-02-20T13:35:03.643Z,22.70
2019-02-20T13:38:08.345Z,22.20
2019-02-20T13:41:14.735Z,23.40
2019-02-20T13:44:21.664Z,22.90
2019-02-20T13:47:26.247Z,22.53
2019-02-20T13:50:30.988Z,22.60
2019-02-20T13:53:35.828Z,21.73
2019-02-20T13:56:40.543Z,21.70
2019-02-20T13:59:45.369Z,21.13
2019-02-20T14:02:52.867Z,22.20
2019-02-20T14:05:57.937Z,22.27
2019-02-20T14:09:02.736Z,21.80
2019-02-20T14:12:07.487Z,22.37
2019-02-20T14:15:12.397Z,22.87
2019-02-20T14:18:17.224Z,21.80
2019-02-20T14:21:22.080Z,21.53
2019-02-20T14:24:27.184Z,21.37
2019-02-20T14:27:31.861Z,23.20
2019-02-20T14:30:36.649Z,20.97
2019-02-20T14:33:41.889Z,20.73
2019-02-20T14:36:46.598Z,21.80
2019-02-20T14:39:51.551Z,21.70
2019-02-20T14:42:56.520Z,21.40
2019-02-20T14:46:01.103Z,22.00
2019-02-20T14:49:05.975Z,21.13
2019-02-20T14:52:10.775Z,20.27
2019-02-20T14:55:15.616Z,20.20
2019-02-20T14:58:20.542Z,19.87
2019-02-20T15:01:25.272Z,19.80
2019-02-20T15:04:30.185Z,20.40
2019-02-20T15:07:35.011Z,20.63
2019-02-20T15:10:39.778Z,19.20
2019-02-20T15:13:44.467Z,21.50
2019-02-20T15:16:50.711Z,18.80
2019-02-20T15:19:55.469Z,19.57
2019-02-20T15:23:00.438Z,20.50
2019-02-20T15:26:05.129Z,19.67
2019-02-20T15:29:09.757Z,19.13
2019-02-20T15:32:14.495Z,20.70
2019-02-20T15:35:19.430Z,20.10
2019-02-20T15:38:24.282Z,19.53
2019-02-20T15:41:29.097Z,19.67
2019-02-20T15:44:33.857Z,19.73
2019-02-20T15:47:38.446Z,20.10
2019-02-20T15:50:43.271Z,19.07
2019-02-20T15:53:48.080Z,18.53
2019-02-20T15:56:52.902Z,18.43
2019-02-20T15:59:58.751Z,18.30
2019-02-20T16:03:03.625Z,19.10
2019-02-20T16:06:08.431Z,19.10
2019-02-20T16:09:13.180Z,18.80
2019-02-20T16:12:18.002Z,18.67
2019-02-20T16:15:24.236Z,18.17
2019-02-20T16:18:29.341Z,17.67
2019-02-20T16:21:33.923Z,19.00
2019-02-20T16:24:38.774Z,18.03
2019-02-20T16:27:47.306Z,17.20
2019-02-20T16:30:50.474Z,19.13
2019-02-20T16:33:55.289Z,21.60
2019-02-20T16:37:00.254Z,23.93
2019-02-20T16:40:05.264Z,23.50
2019-02-20T16:43:10.001Z,24.70
2019-02-20T16:46:16.880Z,25.60
2019-02-20T16:49:21.285Z,26.77
2019-02-20T16:52:26.005Z,26.00
2019-02-20T16:55:30.645Z,27.07
2019-02-20T16:58:35.449Z,23.13
2019-02-20T17:01:40.214Z,23.70
2019-02-20T17:04:45.073Z,23.23
2019-02-20T17:07:49.960Z,23.40
2019-02-20T17:10:54.807Z,21.70
2019-02-20T17:13:59.616Z,22.20
2019-02-20T17:17:04.388Z,22.10
2019-02-20T17:20:10.301Z,22.77
2019-02-20T17:23:15.169Z,22.20
2019-02-20T17:26:19.666Z,22.90
2019-02-20T17:29:24.391Z,21.03
2019-02-20T17:32:29.265Z,20.90
2019-02-20T17:35:34.028Z,21.30
2019-02-20T17:38:38.819Z,20.27
2019-02-20T17:41:43.505Z,20.77
2019-02-20T17:44:48.269Z,22.10
2019-02-20T17:47:52.956Z,22.90
2019-02-20T17:50:57.599Z,22.80
2019-02-20T17:54:02.626Z,22.17
2019-02-20T17:57:07.385Z,22.33
2019-02-20T18:00:13.059Z,21.77
2019-02-20T18:03:17.955Z,22.37
2019-02-20T18:06:22.789Z,22.40
2019-02-20T18:09:27.482Z,23.83
2019-02-20T18:12:32.038Z,22.67
2019-02-20T18:15:36.865Z,20.50
2019-02-20T18:18:43.217Z,20.50
2019-02-20T18:21:50.113Z,19.97
2019-02-20T18:24:57.081Z,19.40
2019-02-20T18:28:01.826Z,19.83
2019-02-20T18:31:06.740Z,19.97
2019-02-20T18:34:11.575Z,18.87
2019-02-20T18:37:16.272Z,18.07
2019-02-20T18:40:20.928Z,18.80
2019-02-20T18:43:25.948Z,16.87
2019-02-20T18:46:30.878Z,18.60
2019-02-20T18:49:35.872Z,17.70
2019-02-20T18:52:40.857Z,18.80
2019-02-20T18:55:45.644Z,17.10
2019-02-20T18:58:50.554Z,16.83
2019-02-20T19:01:55.201Z,16.60
2019-02-20T19:04:59.980Z,17.60
2019-02-20T19:08:51.761Z,16.73
2019-02-20T19:12:15.439Z,16.90
2019-02-20T19:16:02.092Z,16.40
2019-02-20T19:19:55.674Z,18.37
2019-02-20T19:23:25.631Z,17.93
2019-02-20T19:26:58.791Z,16.50
2019-02-20T19:30:59.559Z,16.67
2019-02-20T19:34:40.533Z,16.17
2019-02-20T19:38:39.820Z,15.53
2019-02-20T19:42:35.401Z,16.20
2019-02-20T19:46:09.859Z,15.53
2019-02-20T19:50:13.736Z,16.30
2019-02-20T19:53:36.763Z,15.77
2019-02-20T19:57:13.439Z,15.80
2019-02-20T20:00:59.437Z,14.47
2019-02-20T20:04:54.097Z,14.97
2019-02-20T20:08:25.390Z,15.17
2019-02-20T20:12:02.826Z,13.70
2019-02-20T20:15:40.275Z,14.27
2019-02-20T20:19:34.924Z,13.60
2019-02-20T20:23:26.948Z,14.20
2019-02-20T20:26:57.934Z,14.23
2019-02-20T20:30:34.721Z,15.50
2019-02-20T20:34:35.887Z,16.53
2019-02-20T20:37:54.952Z,14.80
2019-02-20T20:41:50.450Z,14.40
2019-02-20T20:45:37.669Z,15.00
2019-02-20T20:49:13.409Z,15.33
2019-02-20T20:53:02.271Z,14.73
2019-02-20T20:56:42.128Z,16.13
2019-02-20T21:00:33.773Z,17.37
2019-02-20T21:03:43.215Z,20.90
2019-02-20T21:07:10.684Z,23.70
2019-02-20T21:10:55.609Z,28.73
2019-02-20T21:14:46.796Z,33.77
2019-02-20T21:18:41.782Z,34.73
2019-02-20T21:22:10.957Z,37.23
2019-02-20T21:26:01.349Z,38.60
2019-02-20T21:29:28.683Z,41.90
2019-02-20T21:33:03.086Z,44.70
2019-02-20T21:36:21.786Z,48.37
2019-02-20T21:39:57.732Z,52.13
2019-02-20T21:43:59.370Z,59.10
2019-02-20T21:47:30.664Z,60.60
2019-02-20T21:51:09.910Z,61.87
2019-02-20T21:54:58.079Z,63.30
2019-02-20T21:58:40.694Z,65.23
2019-02-20T22:02:04.654Z,67.57
2019-02-20T22:06:05.564Z,70.80
2019-02-20T22:09:58.236Z,69.23
2019-02-20T22:13:47.360Z,71.60
2019-02-20T22:17:02.810Z,70.80
2019-02-20T22:20:54.704Z,72.60
2019-02-20T22:24:23.292Z,74.50
2019-02-20T22:27:54.688Z,73.03
2019-02-20T22:31:26.482Z,72.87
2019-02-20T22:34:47.581Z,72.23
2019-02-20T22:38:38.180Z,73.10
2019-02-20T22:42:19.762Z,74.77
2019-02-20T22:45:49.361Z,73.23
2019-02-20T22:49:20.379Z,76.67
2019-02-20T22:52:32.728Z,76.60
2019-02-20T22:56:14.351Z,77.80
2019-02-20T23:00:01.433Z,79.00
2019-02-20T23:03:19.852Z,80.67
2019-02-20T23:07:04.938Z,78.60
2019-02-20T23:10:37.704Z,79.00
2019-02-20T23:14:08.998Z,80.53
2019-02-20T23:17:13.858Z,82.40
2019-02-20T23:20:18.798Z,83.17
2019-02-20T23:23:23.562Z,82.87
2019-02-20T23:26:28.354Z,82.33
2019-02-20T23:29:32.987Z,79.23
2019-02-20T23:32:37.709Z,80.37
2019-02-20T23:35:42.547Z,79.60
2019-02-20T23:38:47.471Z,77.23
2019-02-20T23:41:52.295Z,74.77
2019-02-20T23:44:56.960Z,74.00
2019-02-20T23:48:01.856Z,75.97
2019-02-20T23:51:06.696Z,70.40
2019-02-20T23:54:11.402Z,71.63
2019-02-20T23:57:16.213Z,67.63
